Flight Track Log - Related Links

Times and Time Zones

All times are in EDT time to prevent confusion due to time zone crossing. See the EJA922 flight status page for this flight to view local times or setup timezone preferences in your user account.

Time Position Orientation Groundspeed Altitude Reporting Facility
EDT Latitude Longitude Course Direction KTS MPH feet Rate Location/Type
Wed 05:04:44 PM 41.7833 -88.5333 259° West 192 221 2,700  Level Chicago TRACON
Wed 05:05:50 PM 41.8000 -88.6167 285° West 247 284 3,200 2,078 Climbing Chicago TRACON
Wed 05:08:09 PM 41.7983 -88.8192 269° West 262 302 9,800 2,762 Climbing Chicago Center
Wed 05:09:12 PM 41.7894 -88.9506 265° West 298 343 12,500 2,208 Climbing Chicago Center
Wed 05:10:00 PM 41.6021 -89.2856 259° West  Level FlightAware
Wed 05:10:14 PM 41.7822 -89.0736 266° West 330 380 14,400  Level Chicago Center
Wed 05:11:16 PM 41.7725 -89.2064 264° West 357 411 16,400 1,887 Climbing Chicago Center
Wed 05:12:18 PM 41.7536 -89.3439 260° West 380 437 18,300 1,742 Climbing Chicago Center
Wed 05:13:20 PM 41.7106 -89.4744 246° West 386 444 20,000 1,548 Climbing Chicago Center
Wed 05:14:22 PM 41.6583 -89.6342 246° West 402 463 21,500 1,355 Climbing Chicago Center
Wed 05:15:24 PM 41.6117 -89.7747 246° West 415 478 22,800 1,403 Climbing Chicago Center
Wed 05:16:26 PM 41.5650 -89.9178 246° West 421 484 24,400 1,355 Climbing Chicago Center
Wed 05:17:28 PM 41.5175 -90.0603 246° West 423 487 25,600 1,248 Climbing Chicago Center
Wed 05:18:31 PM 41.4675 -90.2094 246° West 436 502 27,000 1,248 Climbing Chicago Center
Wed 05:19:33 PM 41.4069 -90.3889 246° West 442 509 28,200 1,161 Climbing Chicago Center
Wed 05:20:35 PM 41.3547 -90.5417 246° West 449 517 29,400 1,210 Climbing Chicago Center
Wed 05:21:37 PM 41.2894 -90.6939 240° Southwest 471 542 30,700 1,258 Climbing Chicago Center
Wed 05:22:39 PM 41.2081 -90.8308 232° Southwest 474 545 32,000 629 Climbing Chicago Center
Wed 05:23:41 PM 41.1233 -90.9733 232° Southwest 490 564 32,000  Level Chicago Center
Wed 05:24:43 PM 41.0183 -91.1500 232° Southwest 510 587 32,000  Level Chicago Center
Wed 05:25:46 PM 40.9289 -91.2983 231° Southwest 516 594 32,000  Level Chicago Center
Wed 05:26:47 PM 40.8464 -91.4300 230° Southwest 516 594 32,000  Level Chicago Center
Wed 05:27:50 PM 40.7275 -91.5933 226° Southwest 517 595 32,000  Level Chicago Center
Wed 05:28:52 PM 40.6311 -91.7261 226° Southwest 506 582 32,000  Level Chicago Center
Wed 05:29:54 PM 40.5347 -91.8581 226° Southwest 503 579 32,000  Level Chicago Center
Wed 05:30:56 PM 40.4403 -91.9892 227° Southwest 498 573 32,000  Level Chicago Center
Wed 05:31:46 PM 40.3642 -92.0947 227° Southwest 497 572 32,000  Level Kansas Center
Wed 05:32:48 PM 40.2875 -92.2792 241° Southwest 484 557 32,000  Level Kansas Center
Wed 05:33:50 PM 40.2233 -92.4353 242° Southwest 487 560 32,000  Level Kansas Center
Wed 05:34:52 PM 40.1603 -92.5933 242° Southwest 505 581 32,000  Level Kansas Center
Wed 05:35:54 PM 40.0869 -92.7750 242° Southwest 507 583 32,000  Level Kansas Center
Wed 05:36:56 PM 40.0217 -92.9350 242° Southwest 513 590 32,000 -288 Level Kansas Center
Wed 05:37:59 PM 39.9542 -93.0981 242° Southwest 513 590 31,400 -1,536 Descending Kansas Center
Wed 05:39:01 PM 39.8869 -93.2611 242° Southwest 513 590 28,800 -2,806 Descending Kansas Center
Wed 05:40:03 PM 39.8083 -93.4478 241° Southwest 496 571 25,600 -2,710 Descending Kansas Center
Wed 05:41:05 PM 39.7467 -93.5978 242° Southwest 485 558 23,200 -2,419 Descending Kansas Center
Wed 05:42:07 PM 39.6806 -93.7528 241° Southwest 457 526 20,600 -2,174 Descending Kansas Center
Wed 05:43:34 PM 39.5925 -93.9531 240° Southwest 443 510 17,800 -1,852 Descending Kansas Center
Wed 05:44:36 PM 39.5289 -94.0753 236° Southwest 427 491 16,000 -1,597 Descending Kansas Center
Wed 05:45:38 PM 39.4572 -94.2167 237° Southwest 421 484 14,500 -1,083 Descending Kansas Center
Wed 05:46:49 PM 39.3989 -94.3303 236° Southwest 396 456 13,600 -871 Descending Kansas Center
Wed 05:47:42 PM 39.2958 -94.3678 196° South 348 400 12,700 -1,983 Descending Kansas Center
Wed 05:48:44 PM 39.2142 -94.3850 189° South 317 365 9,800 -2,855 Descending Kansas Center
Wed 05:49:46 PM 39.1381 -94.3975 187° South 289 333 6,800 -1,984 Descending Kansas Center
Wed 05:50:48 PM 39.0664 -94.4344 202° Southwest 242 278 5,700 -1,306 Descending Kansas Center
Wed 05:51:50 PM 39.0172 -94.4781 215° Southwest 226 260 4,100 -1,452 Descending Kansas Center
Wed 05:52:52 PM 39.0172 -94.5539 270° West 192 221 2,700 -871 Descending Kansas Center
Wed 05:53:54 PM 39.0358 -94.6117 293° West 184 212 2,300 -581 Descending Kansas Center
Wed 05:54:56 PM 39.0842 -94.6050 North 151 174 1,500 -629 Descending Kansas Center
Wed 05:55:58 PM 39.1175 -94.5950 13° North 138 159 1,000 -484 Descending Kansas Center

Login

Don't have an account? Register now (free) for customized features, flight alerts, and more!